Date,TemperatureHighF,TemperatureAvgF,TemperatureLowF,DewpointHighF,DewpointAvgF,DewpointLowF,HumidityHigh,HumidityAvg,HumidityLow,PressureMaxIn,PressureMinIn,WindSpeedMaxMPH,WindSpeedAvgMPH,GustSpeedMaxMPH,PrecipitationSumIn
2013-1-1,48,35,23,19,10,-100,70,42,21,30.27,30.16,2,0,0,0.00
2013-1-2,54,38,24,15,6,-100,56,33,15,30.24,30.06,2,0,0,0.00
2013-1-3,53,37,24,29,8,-1,59,34,12,30.26,30.11,5,0,0,0.00
2013-1-4,55,34,18,16,5,-1,60,33,10,30.32,30.18,1,0,0,0.00
2013-1-5,56,37,22,13,2,-100,53,30,10,30.35,30.08,2,0,0,0.00
2013-1-6,52,43,36,34,25,6,83,52,27,30.09,29.91,7,2,0,0.00
2013-1-7,54,40,31,41,26,6,87,63,22,30.11,29.95,6,0,0,0.00
2013-1-8,63,44,30,31,23,-100,71,50,26,30.19,30.05,1,0,0,0.00
2013-1-9,66,48,32,42,24,-100,79,51,24,30.21,29.75,10,2,0,0.00
2013-1-10,54,40,33,38,24,13,79,55,33,29.99,29.70,16,9,0,0.00
2013-1-11,42,34,29,17,9,-100,57,44,30,30.09,29.98,12,6,0,0.00
2013-1-12,42,31,19,25,8,-100,72,44,18,30.15,30.01,0,0,0,0.00
2013-1-13,42,29,16,18,7,-2,68,43,21,30.19,30.04,2,0,0,0.00
2013-1-14,37,28,18,7,-12,-100,38,23,14,30.41,30.16,3,0,0,0.00
2013-1-15,50,35,22,15,-3,-100,41,28,22,30.51,30.35,3,0,0,0.00
2013-1-16,57,42,32,18,11,-100,46,33,17,30.43,30.22,8,1,0,0.00
2013-1-17,60,44,27,22,11,-100,57,30,12,30.34,30.17,5,0,0,0.00
2013-1-18,62,42,25,16,11,6,56,31,12,30.29,30.14,2,0,0,0.00
2013-1-19,63,42,24,18,9,3,56,30,10,30.32,30.16,4,0,0,0.00
2013-1-20,64,42,23,15,8,-6,56,29,9,30.27,30.10,2,0,0,0.00
2013-1-21,66,44,25,15,4,-100,50,25,7,30.22,30.07,2,0,0,0.00
2013-1-22,67,45,26,13,7,3,43,24,8,30.22,30.05,0,0,0,0.00
2013-1-23,62,49,39,31,15,-100,39,26,13,30.14,29.99,3,0,0,0.00
2013-1-24,60,51,46,47,37,-100,81,65,38,30.15,29.98,3,0,0,0.00
2013-1-25,53,48,45,48,44,38,91,83,73,30.15,29.91,2,0,0,0.00
2013-1-26,62,52,47,53,46,-100,93,82,58,29.93,29.76,3,0,0,0.00
2013-1-27,49,44,38,44,33,24,86,66,47,29.93,29.80,11,5,0,0.00
2013-1-28,46,39,34,27,22,16,71,50,30,30.12,29.93,10,6,0,0.00
2013-1-29,58,42,29,30,24,20,75,51,26,30.18,30.01,11,1,0,0.00
2013-1-30,64,48,34,39,28,24,75,49,24,30.30,30.15,0,0,0,0.00
2013-1-31,65,52,32,37,28,25,77,45,22,30.24,30.10,3,0,0,0.00
2013-2-1,69,48,33,36,20,-100,77,47,20,30.19,30.06,2,0,0,0.00
2013-2-2,64,50,41,40,23,-100,68,46,26,30.23,30.07,2,0,0,0.00
2013-2-3,64,54,43,45,29,-100,84,50,27,30.10,29.93,2,0,0,0.00
2013-2-4,67,49,34,47,23,-100,77,46,15,30.09,29.92,6,0,0,0.00
2013-2-5,72,51,33,40,26,-100,71,45,16,30.04,29.80,4,-14,0,0.00
2013-2-6,64,49,39,38,21,-100,74,46,17,30.06,29.81,7,1,0,0.00
2013-2-7,66,45,30,39,16,-100,72,48,14,30.06,29.78,16,-12,0,0.00
2013-2-8,45,38,32,34,27,-100,87,70,51,29.83,29.74,13,3,0,0.00
2013-2-9,50,38,32,28,22,-100,76,60,33,30.02,29.80,11,2,0,0.00
2013-2-10,51,40,28,31,25,-100,80,60,25,30.03,29.88,6,1,0,0.00
2013-2-11,50,39,30,34,15,-3,84,45,12,30.20,29.97,6,1,0,0.00
2013-2-12,55,39,23,16,9,2,62,34,16,30.34,30.20,1,0,0,0.00
2013-2-13,61,44,26,23,15,10,63,35,15,30.29,30.10,1,0,0,0.00
2013-2-14,65,45,30,37,14,-100,66,37,16,30.24,30.08,4,0,0,0.00
2013-2-15,66,49,33,28,12,-100,62,31,12,30.31,30.15,3,0,0,0.00
2013-2-16,70,48,31,21,13,-100,55,29,8,30.24,29.92,1,0,0,0.00
2013-2-17,67,49,32,33,16,-100,59,33,11,30.00,29.78,11,2,0,0.00
2013-2-18,66,47,31,36,23,-100,77,48,11,29.98,29.75,8,1,0,0.00
2013-2-19,49,42,33,35,32,28,82,69,47,29.83,29.56,12,4,0,0.00
2013-2-20,49,37,28,30,24,19,86,64,34,29.93,29.57,14,6,0,0.00
2013-2-21,50,40,30,36,22,11,81,55,20,30.06,29.88,5,0,0,0.00
2013-2-22,59,42,26,32,19,9,78,46,14,30.16,30.05,1,0,0,0.00
2013-2-23,63,47,33,28,24,-100,70,44,19,30.08,29.78,18,4,0,0.00
2013-2-24,53,42,33,23,1,-100,52,19,8,30.18,29.97,13,2,0,0.00
2013-2-25,65,44,26,16,5,-100,49,26,9,30.24,29.96,4,1,0,0.00
2013-2-26,60,46,32,25,10,-100,55,28,11,30.20,29.93,3,0,0,0.00
2013-2-27,59,44,28,11,6,-1,44,23,10,30.29,30.13,26,1,0,0.00
2013-2-28,68,48,28,12,7,2,46,22,8,30.38,30.24,3,0,0,0.00
2013-3-1,73,53,31,19,13,9,47,23,10,30.39,30.16,3,0,0,0.00
2013-3-2,78,56,35,23,18,11,51,27,8,30.24,29.96,4,0,0,0.00
2013-3-3,69,58,48,34,22,-100,58,26,16,29.96,29.78,11,3,0,0.00
2013-3-4,70,56,42,37,32,25,72,45,20,29.96,29.82,2,0,0,0.00
2013-3-10,45,44,41,15,14,13,32,30,28,30.16,30.16,0,0,0,0.00
2013-3-11,74,52,32,21,14,7,53,27,8,30.18,29.99,3,0,0,0.00
2013-3-12,79,58,36,22,17,13,46,23,10,30.07,29.93,3,0,0,0.00
2013-3-13,84,62,39,25,20,-100,50,25,9,30.10,29.96,3,0,0,0.00
2013-3-14,88,64,42,30,24,19,49,26,9,30.14,29.90,1,0,0,0.00
2013-3-15,84,65,47,40,25,-100,53,28,10,29.92,29.74,7,1,0,0.00
2013-3-16,82,66,50,30,25,13,39,23,8,29.82,29.65,11,3,0,0.00
2013-3-17,78,64,54,35,20,-100,45,23,5,29.86,29.72,6,2,0,0.00
2013-3-19,77,65,55,42,28,-100,57,28,13,29.93,29.80,8,2,0,0.00
2013-3-20,69,57,49,39,35,30,60,45,25,29.93,29.86,4,1,0,0.00
2013-3-22,73,56,45,33,21,-100,52,31,7,29.82,29.65,12,3,0,0.00
2013-3-23,70,55,36,23,13,-8,55,24,6,29.98,29.80,7,1,0,0.00
2013-3-24,73,59,39,21,10,-9,36,16,7,29.93,29.80,3,1,0,0.00
2013-3-25,78,58,40,32,17,-100,49,26,12,29.94,29.75,5,1,0,0.00
2013-3-26,78,61,46,36,28,19,54,31,12,29.80,29.66,6,1,0,0.00
2013-3-27,74,61,51,39,34,-100,50,39,21,29.84,29.66,7,2,0,0.00
2013-6-17,96,80,71,37,18,-100,22,13,8,29.78,29.61,10,2,0,0.00
2013-6-18,92,75,58,44,12,-100,45,19,14,29.76,29.54,10,2,0,0.00
2013-6-19,90,70,58,44,19,-100,48,26,4,29.73,29.55,13,3,0,0.00
2013-6-20,90,69,55,28,19,-100,32,18,7,29.75,29.60,5,1,0,0.00
2013-6-21,91,87,81,39,31,24,22,14,9,29.65,29.62,6,4,0,0.00
2013-6-22,94,82,60,49,29,-100,52,21,7,29.70,29.50,7,2,0,0.00
2013-6-23,86,71,62,46,29,-100,53,31,17,29.62,29.50,7,3,0,0.00
2013-6-24,80,69,57,52,46,-100,74,48,30,29.74,29.56,8,4,0,0.00
2013-6-25,93,76,60,54,48,-100,71,44,19,29.77,29.67,10,2,0,0.00
2013-6-26,99,81,65,55,44,-100,62,34,14,29.80,29.65,6,1,0,0.00
2013-6-27,101,82,66,58,44,-100,61,31,12,29.85,29.70,11,2,0,0.00
2013-6-28,106,87,65,49,41,29,53,24,7,29.88,29.67,8,1,0,0.00
2013-6-29,109,88,68,46,35,-100,36,20,8,29.72,29.56,6,1,0,0.00
2013-6-30,110,90,70,47,39,-100,34,20,7,29.70,29.45,7,1,0,0.00
2013-7-1,106,89,76,52,44,32,39,22,11,29.65,29.53,10,2,0,0.00
2013-7-2,102,86,71,51,40,-100,38,23,11,29.74,29.62,6,1,0,0.00
2013-7-3,107,88,74,49,38,-100,36,23,11,29.72,29.52,8,2,0,0.00
2013-7-4,104,87,70,49,45,39,44,25,13,29.64,29.42,10,2,0,0.00
2013-7-5,101,85,69,48,43,37,38,24,15,29.61,29.48,8,2,0,0.00
2013-7-6,96,79,66,51,40,-100,56,34,12,29.60,29.52,8,1,0,0.00
2013-7-7,102,84,64,54,41,23,48,27,7,29.62,29.54,7,1,0,0.00
2013-7-8,101,82,63,54,34,-100,54,25,8,29.75,29.62,8,1,0,0.00
2013-7-9,105,89,67,46,29,-100,28,15,6,29.92,29.64,6,1,0,0.00
2013-7-10,101,84,75,52,36,-100,39,21,9,29.74,29.62,6,1,0,0.00
2013-7-11,85,77,73,55,50,46,49,40,28,29.78,29.63,4,1,0,0.00
2013-7-12,96,80,70,57,49,39,60,37,16,29.74,29.61,9,1,0,0.00
2013-7-13,99,83,62,48,38,-100,47,25,10,29.77,29.63,5,1,0,0.00
2013-7-14,101,84,68,45,39,31,38,22,11,29.75,29.60,4,0,0,0.00
2013-7-15,99,81,66,46,41,32,47,26,11,29.67,29.57,8,2,0,0.00
2013-7-16,91,79,67,37,25,9,28,16,5,29.76,29.60,8,3,0,0.00
2013-7-17,99,77,56,30,22,13,33,15,5,29.85,29.75,4,0,0,0.00
2013-7-18,103,83,59,33,25,19,30,13,6,29.82,29.65,5,1,0,0.00
2013-7-19,105,86,65,39,30,23,31,15,6,29.75,29.58,6,1,0,0.00
2013-7-20,97,83,73,58,46,-100,49,29,20,29.63,29.49,8,1,0,0.00
2013-7-21,88,79,73,62,53,-100,68,48,33,29.72,29.56,6,1,0,0.00
2013-7-22,91,76,69,63,39,-100,67,45,30,29.80,29.66,7,1,0,0.00
2013-7-23,97,78,66,60,20,-100,76,31,23,29.87,29.66,12,1,0,0.00
2013-7-24,101,80,67,54,11,-100,59,24,14,29.88,29.56,11,1,0,0.00
2013-7-25,102,83,67,53,22,-100,60,23,13,29.87,29.60,11,2,0,0.00
2013-7-26,95,81,72,56,38,-100,43,30,18,29.85,29.68,5,-20,0,0.00
2013-7-27,96,80,73,53,2,-100,49,21,20,29.92,29.57,10,1,0,0.00
2013-7-28,93,72,68,53,-19,-100,49,19,12,29.79,29.56,20,3,0,0.00
2013-7-29,92,75,69,36,-37,-100,28,9,7,29.79,29.63,14,2,0,0.00
2013-7-30,95,77,64,49,8,-100,41,22,15,29.95,29.70,12,2,0,0.00
2013-7-31,94,70,62,47,-23,-100,51,13,9,29.95,29.70,17,3,0,0.00
2013-8-1,94,73,62,40,-25,-100,28,11,6,29.85,29.57,10,2,0,0.00
2013-8-2,92,66,56,45,-18,-100,53,19,10,29.83,29.60,11,2,0,0.00
2013-8-3,94,69,61,45,-13,-100,48,23,6,29.83,29.60,7,1,0,0.00
2013-8-4,95,70,57,44,-27,-100,54,13,5,29.87,29.65,7,2,0,0.00
2013-8-5,95,76,57,32,-16,-100,22,10,5,29.89,29.64,8,1,0,0.00
2013-8-6,95,75,60,30,-9,-100,19,9,6,29.83,29.65,9,2,0,0.00
2013-8-8,85,79,73,29,-12,-100,16,9,11,29.72,29.67,10,5,0,0.00
2013-8-9,86,73,59,42,7,-100,33,16,7,29.80,29.64,13,-23,0,0.00
2013-8-10,90,69,52,39,10,-100,59,23,7,29.91,29.65,5,0,0,0.00
2013-8-21,98,71,67,42,-35,-100,29,10,12,29.83,29.64,9,2,0,0.00
2013-8-22,98,79,70,40,-10,-100,26,12,12,29.84,29.54,12,2,0,0.00
2013-8-23,95,76,69,39,-19,-100,24,11,11,29.72,29.48,10,2,0,0.00
2013-8-24,94,72,66,48,-5,-100,35,15,8,29.71,29.53,10,1,0,0.00
2013-8-25,91,69,64,60,1,-100,65,27,18,29.78,29.64,12,2,0,0.00
2013-8-26,84,74,67,61,10,-100,79,41,41,29.84,29.71,8,0,0,0.00
2013-8-27,87,66,63,63,24,-100,83,61,64,29.79,29.65,0,-45,0,0.00
2013-8-28,95,72,80,54,-28,-100,37,14,22,29.73,29.59,7,2,0,0.00
2013-8-29,95,72,68,58,4,-100,52,24,26,29.91,29.70,3,0,0,0.00
2013-8-30,93,72,71,61,14,-100,57,33,29,29.94,29.74,5,1,0,0.00
2013-8-31,78,76,74,65,40,-100,73,57,59,29.80,29.73,0,0,0,0.00
2013-9-1,95,79,74,58,3,-100,44,20,19,29.85,29.59,6,2,0,0.00
2013-9-2,96,79,65,64,4,-100,70,29,17,29.86,29.57,8,-21,0,0.00
2013-9-3,95,75,72,56,-19,-100,52,19,20,29.76,29.61,8,1,0,0.00
2013-9-4,98,81,68,55,3,-100,55,24,21,29.86,29.65,15,-28,0,0.00
2013-9-5,98,81,69,56,17,-100,57,28,17,29.83,29.65,9,-72,0,0.00
2013-9-6,99,75,68,52,1,-100,43,19,16,29.79,29.61,8,-22,0,0.00
2013-9-7,96,78,68,66,23,-100,53,30,17,29.83,29.59,6,1,0,0.00
2013-9-8,97,81,66,54,29,-100,56,29,10,29.71,29.56,2,0,0,0.00
2013-9-9,94,75,72,54,14,-100,49,26,16,29.67,29.42,9,0,0,0.00
2013-9-10,89,77,66,50,23,-100,51,26,17,29.73,29.50,6,1,0,0.00
2013-9-11,91,76,61,45,3,-100,51,22,15,29.83,29.66,6,1,0,0.00
2013-9-12,93,71,60,46,8,-100,55,23,12,29.85,29.57,5,1,0,0.00
2013-9-13,95,81,59,39,-1,-100,41,16,14,29.76,29.47,2,0,0,0.00
2013-9-14,98,77,61,42,-2,-100,42,18,12,29.63,29.37,4,0,0,0.00
2013-11-17,47,44,39,41,39,34,84,80,76,29.93,29.80,2,0,0,0.00